NCAR-RAP Real-Time Weather Data

Output produced by METARs form (27 March 2017  08:36 UTC)
found at http://weather.rap.ucar.edu/surface/
 
Conditions at: KLOU observed 27 March 2017  07:53 UTC
Temperature: 11.7°C (53°F)
Dewpoint: 8.9°C (48°F) [RH = 83%]
Pressure (altimeter): 29.97 inches Hg (1015.0 mb)
[Sea-level pressure: 1014.7 mb]
Winds: calm
Visibility: 10 or more miles (16+ km)
Ceiling: at least 12,000 feet AGL
Clouds: scattered clouds at 4900 feet AGL
Present Weather: automated observation with no human augmentation;
there may or may not be significant weather present at this time
KLOU 270753Z AUTO 00000KT 10SM SCT049 12/09 A2997 RMK AO2 SLP147 T01170089